createdAt,value
2023-01-04T00:01:17.544Z,99592.97
2023-01-04T00:03:44.555Z,99590.78
2023-01-04T00:06:14.143Z,99597.69
2023-01-04T00:08:40.982Z,99596.38
2023-01-04T00:11:11.272Z,99599.78
2023-01-04T00:13:37.920Z,99596.09
2023-01-04T00:18:54.627Z,99583.66
2023-01-04T00:21:27.353Z,99581.38
2023-01-04T00:23:56.372Z,99578.94
2023-01-04T00:26:26.135Z,99577.53
2023-01-04T00:28:58.641Z,99571.91
2023-01-04T00:31:26.479Z,99574.94
2023-01-04T00:33:58.265Z,99567.00
2023-01-04T00:36:25.063Z,99562.41
2023-01-04T00:39:10.655Z,99546.06
2023-01-04T00:42:01.702Z,99532.84
2023-01-04T00:44:29.442Z,99532.72
2023-01-04T00:46:56.391Z,99522.84
2023-01-04T00:49:23.447Z,99524.53
2023-01-04T00:51:50.257Z,99528.25
2023-01-04T00:54:17.255Z,99517.81
2023-01-04T00:56:44.418Z,99519.91
2023-01-04T00:59:13.383Z,99526.63
2023-01-04T01:01:41.725Z,99519.41
2023-01-04T01:04:12.003Z,99522.44
2023-01-04T01:06:39.161Z,99527.84
2023-01-04T01:09:05.990Z,99535.56
2023-01-04T01:11:32.710Z,99538.97
2023-01-04T01:13:59.485Z,99546.09
2023-01-04T01:16:53.145Z,99544.69
2023-01-04T01:19:13.828Z,99540.06
2023-01-04T01:21:40.432Z,99540.88
2023-01-04T01:24:07.519Z,99531.25
2023-01-04T01:26:34.536Z,99524.13
2023-01-04T01:29:01.173Z,99531.25
2023-01-04T01:31:29.145Z,99535.28
2023-01-04T01:33:57.036Z,99534.47
2023-01-04T01:36:26.027Z,99529.06
2023-01-04T01:38:53.481Z,99535.16
2023-01-04T01:41:24.034Z,99539.69
2023-01-04T01:43:56.718Z,99537.28
2023-01-04T01:46:53.729Z,99542.25
2023-01-04T01:49:32.091Z,99540.06
2023-01-04T01:52:02.162Z,99543.19
2023-01-04T01:54:36.998Z,99546.09
2023-01-04T01:57:07.549Z,99548.19
2023-01-04T01:59:40.024Z,99542.78
2023-01-04T02:02:07.181Z,99544.41
2023-01-04T02:04:35.425Z,99538.25
2023-01-04T02:07:02.855Z,99536.66
2023-01-04T02:09:31.361Z,99524.63
2023-01-04T02:11:57.895Z,99522.03
2023-01-04T02:14:27.786Z,99534.06
2023-01-04T02:17:04.173Z,99521.50
2023-01-04T02:20:03.904Z,99522.63
2023-01-04T02:23:08.503Z,99523.44
2023-01-04T02:26:02.844Z,99523.22
2023-01-04T02:28:41.515Z,99524.41
2023-01-04T02:31:32.741Z,99520.19
2023-01-04T02:34:14.236Z,99519.91
2023-01-04T02:36:46.428Z,99513.09
2023-01-04T02:39:36.484Z,99504.75
2023-01-04T02:42:18.129Z,99506.91
2023-01-04T02:47:55.090Z,99499.09
2023-01-04T02:50:59.924Z,99497.88
2023-01-04T02:53:29.020Z,99494.69
2023-01-04T02:56:14.259Z,99482.25
2023-01-04T02:58:40.765Z,99487.75
2023-01-04T03:02:16.851Z,99481.75
2023-01-04T03:05:12.911Z,99481.03
2023-01-04T03:07:45.529Z,99480.72
2023-01-04T03:10:31.236Z,99479.66
2023-01-04T03:13:06.538Z,99483.06
2023-01-04T03:15:38.076Z,99472.84
2023-01-04T03:18:14.584Z,99470.06
2023-01-04T03:20:43.048Z,99469.16
2023-01-04T03:23:33.369Z,99451.81
2023-01-04T03:26:20.860Z,99451.78
2023-01-04T03:29:08.360Z,99452.34
2023-01-04T03:31:59.678Z,99445.13
2023-01-04T03:34:45.192Z,99444.81
2023-01-04T03:37:25.835Z,99443.69
2023-01-04T03:40:38.753Z,99437.22
2023-01-04T03:43:37.805Z,99436.41
2023-01-04T03:46:39.018Z,99443.28
2023-01-04T03:49:57.550Z,99442.53
2023-01-04T03:52:28.605Z,99444.13
2023-01-04T03:54:57.738Z,99446.22
2023-01-04T03:57:26.018Z,99452.75
2023-01-04T04:00:01.173Z,99441.78
2023-01-04T04:02:33.080Z,99443.38
2023-01-04T04:05:18.215Z,99444.78
2023-01-04T04:08:03.288Z,99441.28
2023-01-04T04:10:29.846Z,99438.69
2023-01-04T04:12:56.388Z,99435.53
2023-01-04T04:15:22.945Z,99432.22
2023-01-04T04:17:49.523Z,99419.41
2023-01-04T04:20:16.572Z,99415.19
2023-01-04T04:22:43.447Z,99408.34
2023-01-04T04:25:10.402Z,99415.59
2023-01-04T04:30:09.218Z,99416.34
2023-01-04T04:32:35.850Z,99412.34
2023-01-04T04:35:02.363Z,99403.50
2023-01-04T04:37:32.141Z,99406.78
2023-01-04T04:39:58.973Z,99404.75
2023-01-04T04:45:04.454Z,99409.88
2023-01-04T04:47:31.004Z,99405.66
2023-01-04T04:49:57.573Z,99407.94
2023-01-04T04:52:24.127Z,99405.41
2023-01-04T04:54:50.729Z,99394.94
2023-01-04T04:57:17.261Z,99389.09
2023-01-04T04:59:43.875Z,99398.94
2023-01-04T05:02:10.553Z,99384.66
2023-01-04T05:04:37.173Z,99386.50
2023-01-04T05:07:08.927Z,99377.56
2023-01-04T05:09:38.700Z,99377.75
2023-01-04T05:12:24.040Z,99376.66
2023-01-04T05:14:50.570Z,99378.53
2023-01-04T05:17:17.532Z,99389.03
2023-01-04T05:19:44.033Z,99386.22
2023-01-04T05:22:10.569Z,99389.59
2023-01-04T05:24:37.090Z,99382.41
2023-01-04T05:27:03.716Z,99394.47
2023-01-04T05:29:48.841Z,99393.53
2023-01-04T05:34:47.092Z,99387.50
2023-01-04T05:37:13.646Z,99389.91
2023-01-04T05:39:40.175Z,99385.91
2023-01-04T05:42:25.137Z,99375.84
2023-01-04T05:44:56.674Z,99375.09
2023-01-04T05:47:24.493Z,99370.75
2023-01-04T05:49:51.844Z,99370.34
2023-01-04T05:52:18.957Z,99372.75
2023-01-04T05:54:45.972Z,99373.97
2023-01-04T05:57:13.559Z,99376.53
2023-01-04T05:59:42.114Z,99383.75
2023-01-04T06:02:24.544Z,99372.50
2023-01-04T06:04:58.395Z,99373.91
2023-01-04T06:07:25.836Z,99370.19
2023-01-04T06:09:52.583Z,99370.97
2023-01-04T06:12:19.334Z,99372.41
2023-01-04T06:14:45.933Z,99372.06
2023-01-04T06:17:12.898Z,99368.06
2023-01-04T06:19:39.554Z,99360.38
2023-01-04T06:22:07.249Z,99367.59
2023-01-04T06:24:34.275Z,99366.00
2023-01-04T06:27:01.919Z,99361.69
2023-01-04T06:29:28.571Z,99361.06
2023-01-04T06:31:55.382Z,99344.78
2023-01-04T06:34:26.974Z,99362.63
2023-01-04T06:36:57.467Z,99351.47
2023-01-04T06:39:24.143Z,99362.63
2023-01-04T06:41:50.863Z,99355.78
2023-01-04T06:44:17.417Z,99354.19
2023-01-04T06:46:44.034Z,99357.53
2023-01-04T06:49:10.728Z,99358.97
2023-01-04T06:51:37.283Z,99360.25
2023-01-04T06:54:04.171Z,99367.09
2023-01-04T06:56:32.286Z,99360.13
2023-01-04T07:01:31.146Z,99364.56
2023-01-04T07:03:57.833Z,99359.97
2023-01-04T07:06:24.409Z,99361.19
2023-01-04T07:08:50.993Z,99363.59
2023-01-04T07:11:17.523Z,99358.19
2023-01-04T07:13:44.084Z,99347.97
2023-01-04T07:16:10.827Z,99362.84
2023-01-04T07:18:37.348Z,99358.84
2023-01-04T07:21:04.107Z,99352.31
2023-01-04T07:23:30.642Z,99358.84
2023-01-04T07:26:01.294Z,99351.69
2023-01-04T07:28:46.548Z,99348.75
2023-01-04T07:31:13.283Z,99350.03
2023-01-04T07:33:39.976Z,99350.84
2023-01-04T07:36:07.426Z,99351.97
2023-01-04T07:38:35.241Z,99351.19
2023-01-04T07:41:01.999Z,99356.78
2023-01-04T07:43:28.935Z,99352.13
2023-01-04T07:45:56.159Z,99352.91
2023-01-04T07:48:22.946Z,99335.22
2023-01-04T07:50:50.187Z,99335.22
2023-01-04T07:53:16.902Z,99334.72
2023-01-04T07:55:43.503Z,99338.06
2023-01-04T07:58:10.063Z,99338.41
2023-01-04T08:00:36.680Z,99336.16
2023-01-04T08:03:03.437Z,99330.41
2023-01-04T08:05:34.706Z,99328.84
2023-01-04T08:08:01.396Z,99327.41
2023-01-04T08:13:02.890Z,99327.53
2023-01-04T08:15:29.531Z,99315.34
2023-01-04T08:17:56.907Z,99313.63
2023-01-04T08:20:24.526Z,99310.28
2023-01-04T08:22:51.069Z,99311.25
2023-01-04T08:25:17.693Z,99303.13
2023-01-04T08:27:44.650Z,99300.56
2023-01-04T08:30:11.388Z,99305.00
2023-01-04T08:32:39.686Z,99308.25
2023-01-04T08:35:06.658Z,99310.47
2023-01-04T08:37:35.117Z,99308.88
2023-01-04T08:40:02.017Z,99297.38
2023-01-04T08:42:31.827Z,99298.03
2023-01-04T08:45:01.563Z,99297.06
2023-01-04T08:47:30.494Z,99294.50
2023-01-04T08:49:57.804Z,99281.91
2023-01-04T08:52:24.686Z,99281.41
2023-01-04T08:54:51.355Z,99272.63
2023-01-04T08:57:18.705Z,99268.97
2023-01-04T08:59:45.325Z,99262.56
2023-01-04T09:02:24.271Z,99266.75
2023-01-04T09:04:51.454Z,99263.84
2023-01-04T09:07:18.607Z,99266.09
2023-01-04T09:09:45.416Z,99277.13
2023-01-04T09:12:12.173Z,99278.88
2023-01-04T09:14:39.390Z,99280.16
2023-01-04T09:17:06.356Z,99283.81
2023-01-04T09:19:33.001Z,99279.53
2023-01-04T09:21:59.708Z,99273.94
2023-01-04T09:24:26.349Z,99273.78
2023-01-04T09:26:53.252Z,99278.41
2023-01-04T09:29:20.113Z,99268.50
2023-01-04T09:31:47.122Z,99268.25
2023-01-04T09:34:16.008Z,99271.81
2023-01-04T09:36:44.534Z,99271.50
2023-01-04T09:39:18.741Z,99281.84
2023-01-04T09:42:00.006Z,99272.91
2023-01-04T09:48:00.056Z,99259.97
2023-01-04T09:50:37.444Z,99246.03
2023-01-04T09:53:18.542Z,99266.78
2023-01-04T09:58:31.607Z,99263.47
2023-01-04T10:01:03.202Z,99261.88
2023-01-04T10:03:33.297Z,99260.09
2023-01-04T10:08:32.509Z,99236.09
2023-01-04T10:11:14.273Z,99231.63
2023-01-04T10:13:55.791Z,99236.84
2023-01-04T10:22:40.094Z,99217.63
2023-01-04T10:28:34.280Z,99215.84
2023-01-04T10:31:39.287Z,99211.66
2023-01-04T10:34:39.207Z,99220.97
2023-01-04T10:37:22.478Z,99211.47
2023-01-04T10:39:55.751Z,99200.91
2023-01-04T10:42:30.751Z,99206.34
2023-01-04T10:45:09.347Z,99194.38
2023-01-04T10:47:47.417Z,99201.16
2023-01-04T10:50:30.603Z,99201.44
2023-01-04T10:53:05.914Z,99191.16
2023-01-04T10:56:23.123Z,99197.88
2023-01-04T10:58:35.964Z,99192.69
2023-01-04T11:01:12.427Z,99198.22
2023-01-04T11:03:53.881Z,99189.69
2023-01-04T11:06:40.920Z,99183.03
2023-01-04T11:09:21.139Z,99165.03
2023-01-04T11:11:51.523Z,99173.84
2023-01-04T11:14:18.368Z,99162.44
2023-01-04T11:16:48.959Z,99158.47
2023-01-04T11:19:15.827Z,99153.38
2023-01-04T11:21:52.557Z,99154.28
2023-01-04T11:24:32.104Z,99145.59
2023-01-04T11:27:06.269Z,99154.91
2023-01-04T11:29:42.640Z,99137.94
2023-01-04T11:34:57.711Z,99135.28
2023-01-04T11:37:25.909Z,99142.97
2023-01-04T11:39:52.531Z,99129.03
2023-01-04T11:42:22.274Z,99122.44
2023-01-04T11:44:59.155Z,99129.28
2023-01-04T11:47:31.418Z,99122.22
2023-01-04T11:49:59.811Z,99116.88
2023-01-04T11:52:33.437Z,99116.25
2023-01-04T11:55:25.654Z,99120.88
2023-01-04T11:58:11.339Z,99118.75
2023-01-04T12:00:39.134Z,99126.00
2023-01-04T12:03:18.718Z,99119.41
2023-01-04T12:05:45.322Z,99124.63
2023-01-04T12:08:32.136Z,99119.75
2023-01-04T12:11:00.959Z,99131.81
2023-01-04T12:13:28.983Z,99120.69
2023-01-04T12:16:07.817Z,99115.56
2023-01-04T12:18:43.600Z,99106.94
2023-01-04T12:21:19.381Z,99109.53
2023-01-04T12:23:47.048Z,99105.13
2023-01-04T12:26:14.976Z,99108.31
2023-01-04T12:28:44.961Z,99106.25
2023-01-04T12:31:21.269Z,99100.81
2023-01-04T12:34:13.347Z,99098.00
2023-01-04T12:36:39.867Z,99103.44
2023-01-04T12:39:12.621Z,99090.81
2023-01-04T12:41:39.121Z,99082.28
2023-01-04T12:44:39.907Z,99073.44
2023-01-04T12:47:37.347Z,99087.63
2023-01-04T12:50:27.735Z,99087.06
2023-01-04T12:55:55.470Z,99080.56
2023-01-04T12:59:06.874Z,99072.84
2023-01-04T13:01:24.118Z,99070.34
2023-01-04T13:03:59.447Z,99064.88
2023-01-04T13:06:35.966Z,99068.72
2023-01-04T13:09:02.651Z,99064.75
2023-01-04T13:11:55.532Z,99055.91
2023-01-04T13:14:44.074Z,99052.03
2023-01-04T13:17:16.655Z,99057.03
2023-01-04T13:19:44.388Z,99050.78
2023-01-04T13:22:23.401Z,99045.41
2023-01-04T13:24:56.425Z,99042.03
2023-01-04T13:27:24.458Z,99040.41
2023-01-04T13:29:52.233Z,99037.34
2023-01-04T13:32:30.739Z,99037.22
2023-01-04T13:35:13.947Z,99039.94
2023-01-04T13:37:45.653Z,99041.88
2023-01-04T13:40:21.967Z,99033.78
2023-01-04T13:42:51.969Z,99031.50
2023-01-04T13:45:40.600Z,99023.78
2023-01-04T13:48:13.085Z,99021.06
2023-01-04T13:50:47.391Z,99029.00
2023-01-04T13:53:25.148Z,99019.44
2023-01-04T13:55:53.941Z,99006.72
2023-01-04T13:58:42.268Z,99015.34
2023-01-04T14:01:11.935Z,99010.31
2023-01-04T14:03:43.807Z,99001.44
2023-01-04T14:06:10.405Z,98997.91
2023-01-04T14:08:50.778Z,98988.69
2023-01-04T14:11:39.636Z,98990.75
2023-01-04T14:17:12.800Z,98993.47
2023-01-04T14:19:49.832Z,98993.13
2023-01-04T14:22:44.604Z,98996.75
2023-01-04T14:25:34.444Z,98995.97
2023-01-04T14:28:24.693Z,98991.72
2023-01-04T14:30:54.344Z,98976.94
2023-01-04T14:33:26.434Z,98979.56
2023-01-04T14:36:27.058Z,98978.53
2023-01-04T14:39:08.755Z,98975.44
2023-01-04T14:41:42.443Z,98977.38
2023-01-04T14:44:12.541Z,98980.47
2023-01-04T14:46:41.936Z,98982.75
2023-01-04T14:49:08.713Z,98972.38
2023-01-04T14:51:38.837Z,98982.06
2023-01-04T14:54:06.706Z,98976.59
2023-01-04T14:56:34.592Z,98978.16
2023-01-04T14:59:01.311Z,98978.88
2023-01-04T15:01:28.127Z,98958.19
2023-01-04T15:03:55.182Z,98957.81
2023-01-04T15:06:21.947Z,98953.19
2023-01-04T15:08:49.009Z,98959.06
2023-01-04T15:11:15.932Z,98961.53
2023-01-04T15:13:42.532Z,98964.53
2023-01-04T15:16:12.174Z,98949.28
2023-01-04T15:21:13.568Z,98948.13
2023-01-04T15:23:40.484Z,98952.47
2023-01-04T15:26:08.922Z,98952.47
2023-01-04T15:28:36.348Z,98945.59
2023-01-04T15:31:08.341Z,98943.66
2023-01-04T15:33:35.740Z,98951.78
2023-01-04T15:36:04.978Z,98944.72
2023-01-04T15:38:31.587Z,98941.81
2023-01-04T15:41:05.899Z,98933.78
2023-01-04T15:43:36.664Z,98929.47
2023-01-04T15:46:08.581Z,98933.78
2023-01-04T15:48:36.765Z,98936.97
2023-01-04T15:51:07.837Z,98936.63
2023-01-04T15:53:35.089Z,98940.16
2023-01-04T15:56:10.979Z,98940.16
2023-01-04T15:58:38.010Z,98948.78
2023-01-04T16:01:15.589Z,98936.78
2023-01-04T16:03:42.323Z,98930.81
2023-01-04T16:06:11.170Z,98942.16
2023-01-04T16:08:37.779Z,98945.34
2023-01-04T16:11:16.559Z,98931.69
2023-01-04T16:13:44.258Z,98930.09
2023-01-04T16:16:11.426Z,98937.88
2023-01-04T16:18:38.824Z,98923.44
2023-01-04T16:21:09.130Z,98927.66
2023-01-04T16:23:38.333Z,98927.03
2023-01-04T16:26:13.478Z,98917.66
2023-01-04T16:28:40.627Z,98928.44
2023-01-04T16:31:08.463Z,98926.41
2023-01-04T16:33:35.874Z,98919.09
2023-01-04T16:36:08.592Z,98911.25
2023-01-04T16:38:37.463Z,98907.84
2023-01-04T16:41:06.228Z,98897.31
2023-01-04T16:43:41.680Z,98892.69
2023-01-04T16:46:15.367Z,98900.06
2023-01-04T16:48:47.602Z,98900.16
2023-01-04T16:51:14.696Z,98896.66
2023-01-04T16:53:41.511Z,98900.59
2023-01-04T16:56:10.650Z,98891.25
2023-01-04T16:58:37.512Z,98880.78
2023-01-04T17:01:17.225Z,98894.06
2023-01-04T17:03:45.297Z,98890.63
2023-01-04T17:06:14.573Z,98896.09
2023-01-04T17:08:41.854Z,98897.31
2023-01-04T17:12:11.491Z,98886.06
2023-01-04T17:13:59.741Z,98885.78
2023-01-04T17:16:32.619Z,98893.81
2023-01-04T17:19:01.203Z,98880.84
2023-01-04T17:21:34.192Z,98894.03
2023-01-04T17:24:01.102Z,98894.06
2023-01-04T17:26:30.434Z,98893.28
2023-01-04T17:28:58.473Z,98889.03
2023-01-04T17:31:28.599Z,98886.31
2023-01-04T17:33:55.400Z,98874.59
2023-01-04T17:36:22.155Z,98873.00
2023-01-04T17:38:49.609Z,98869.72
2023-01-04T17:41:18.124Z,98869.66
2023-01-04T17:43:48.452Z,98871.59
2023-01-04T17:46:22.805Z,98871.22
2023-01-04T17:49:17.997Z,98887.97
2023-01-04T17:51:40.042Z,98873.09
2023-01-04T17:54:08.617Z,98882.53
2023-01-04T17:56:37.274Z,98869.00
2023-01-04T17:59:06.905Z,98865.84
2023-01-04T18:01:35.101Z,98863.91
2023-01-04T18:04:03.117Z,98867.44
2023-01-04T18:09:08.150Z,98872.81
2023-01-04T18:11:35.859Z,98873.63
2023-01-04T18:14:05.997Z,98875.56
2023-01-04T18:16:57.165Z,98871.66
2023-01-04T18:19:26.626Z,98864.53
2023-01-04T18:21:53.256Z,98855.19
2023-01-04T18:24:37.225Z,98862.44
2023-01-04T18:27:23.722Z,98865.97
2023-01-04T18:29:52.080Z,98864.53
2023-01-04T18:32:19.275Z,98864.81
2023-01-04T18:34:45.851Z,98864.38
2023-01-04T18:37:12.476Z,98870.72
2023-01-04T18:39:39.087Z,98871.41
2023-01-04T18:42:05.686Z,98863.94
2023-01-04T18:44:34.960Z,98875.56
2023-01-04T18:47:03.436Z,98868.22
2023-01-04T18:49:30.179Z,98869.63
2023-01-04T18:51:56.813Z,98866.88
2023-01-04T18:54:23.883Z,98861.69
2023-01-04T18:56:53.221Z,98874.13
2023-01-04T18:59:24.160Z,98869.00
2023-01-04T19:01:51.137Z,98875.97
2023-01-04T19:06:58.606Z,98891.56
2023-01-04T19:11:56.495Z,98879.59
2023-01-04T19:14:23.122Z,98889.22
2023-01-04T19:16:49.909Z,98879.53
2023-01-04T19:19:16.546Z,98881.28
2023-01-04T19:21:43.192Z,98878.63
2023-01-04T19:24:09.732Z,98875.44
2023-01-04T19:26:36.472Z,98878.91
2023-01-04T19:29:05.067Z,98872.00
2023-01-04T19:31:31.609Z,98867.97
2023-01-04T19:33:58.337Z,98877.06
2023-01-04T19:36:24.978Z,98876.34
2023-01-04T19:38:51.546Z,98884.44
2023-01-04T19:41:29.119Z,98889.22
2023-01-04T19:43:58.129Z,98883.75
2023-01-04T19:46:25.376Z,98879.78
2023-01-04T19:48:52.049Z,98891.50
2023-01-04T19:51:19.035Z,98899.78
2023-01-04T19:53:45.848Z,98894.22
2023-01-04T19:56:14.639Z,98894.31
2023-01-04T19:58:41.233Z,98909.91
2023-01-04T20:01:11.882Z,98901.28
2023-01-04T20:03:38.763Z,98889.56
2023-01-04T20:06:06.234Z,98904.09
2023-01-04T20:08:33.617Z,98900.81
2023-01-04T20:11:01.562Z,98900.47
2023-01-04T20:13:29.760Z,98909.41
2023-01-04T20:15:56.315Z,98903.56
2023-01-04T20:18:26.387Z,98906.28
2023-01-04T20:20:53.323Z,98918.44
2023-01-04T20:23:21.793Z,98908.69
2023-01-04T20:25:51.088Z,98918.03
2023-01-04T20:28:20.016Z,98913.00
2023-01-04T20:30:47.490Z,98918.31
2023-01-04T20:33:14.411Z,98908.09
2023-01-04T20:35:43.707Z,98901.41
2023-01-04T20:38:11.490Z,98914.22
2023-01-04T20:40:38.924Z,98916.53
2023-01-04T20:43:23.853Z,98916.97
2023-01-04T20:45:50.555Z,98908.69
2023-01-04T20:48:17.256Z,98900.50
2023-01-04T20:50:43.870Z,98898.47
2023-01-04T20:53:11.620Z,98902.88
2023-01-04T20:55:44.284Z,98907.63
2023-01-04T20:58:14.731Z,98897.84
2023-01-04T21:00:42.367Z,98897.84
2023-01-04T21:03:11.041Z,98914.22
2023-01-04T21:05:43.461Z,98902.19
2023-01-04T21:08:11.990Z,98889.66
2023-01-04T21:10:43.592Z,98890.81
2023-01-04T21:13:11.530Z,98897.06
2023-01-04T21:18:16.786Z,98890.81
2023-01-04T21:20:44.021Z,98893.09
2023-01-04T21:23:18.994Z,98899.34
2023-01-04T21:25:46.029Z,98891.34
2023-01-04T21:28:13.898Z,98892.94
2023-01-04T21:30:42.049Z,98891.84
2023-01-04T21:33:09.885Z,98897.25
2023-01-04T21:35:37.051Z,98905.78
2023-01-04T21:38:04.561Z,98901.47
2023-01-04T21:40:32.686Z,98896.81
2023-01-04T21:42:59.415Z,98892.13
2023-01-04T21:45:26.566Z,98884.03
2023-01-04T21:47:54.565Z,98883.25
2023-01-04T21:50:21.220Z,98887.81
2023-01-04T21:55:19.119Z,98883.41
2023-01-04T21:57:45.656Z,98883.78
2023-01-04T22:00:12.502Z,98874.41
2023-01-04T22:02:41.165Z,98875.56
2023-01-04T22:05:08.292Z,98870.47
2023-01-04T22:07:34.872Z,98881.75
2023-01-04T22:10:01.407Z,98859.72
2023-01-04T22:12:28.028Z,98860.16
2023-01-04T22:14:54.950Z,98859.91
2023-01-04T22:17:21.512Z,98848.53
2023-01-04T22:19:48.112Z,98846.06
2023-01-04T22:22:14.813Z,98835.84
2023-01-04T22:24:41.406Z,98834.88
2023-01-04T22:27:08.128Z,98828.97
2023-01-04T22:29:34.706Z,98826.84
2023-01-04T22:32:01.262Z,98816.16
2023-01-04T22:34:28.256Z,98812.03
2023-01-04T22:36:54.908Z,98824.53
2023-01-04T22:39:21.686Z,98817.78
2023-01-04T22:44:20.055Z,98819.00
2023-01-04T22:46:46.933Z,98813.63
2023-01-04T22:49:13.542Z,98811.16
2023-01-04T22:51:41.442Z,98813.53
2023-01-04T22:54:10.130Z,98808.09
2023-01-04T22:56:36.720Z,98797.09
2023-01-04T22:59:03.349Z,98793.97
2023-01-04T23:01:32.886Z,98800.22
2023-01-04T23:04:01.456Z,98795.22
2023-01-04T23:09:10.596Z,98787.91
2023-01-04T23:11:38.309Z,98776.88
2023-01-04T23:14:07.467Z,98773.19
2023-01-04T23:16:34.188Z,98783.50
2023-01-04T23:19:02.346Z,98769.84
2023-01-04T23:21:30.056Z,98775.66
2023-01-04T23:23:56.724Z,98780.41
2023-01-04T23:26:24.908Z,98770.63
2023-01-04T23:28:51.904Z,98769.47
2023-01-04T23:33:57.100Z,98767.13
2023-01-04T23:36:27.396Z,98762.44
2023-01-04T23:38:56.465Z,98765.63
2023-01-04T23:41:44.503Z,98765.34
2023-01-04T23:44:17.880Z,98760.16
2023-01-04T23:46:45.083Z,98766.47
2023-01-04T23:49:12.759Z,98760.28
2023-01-04T23:51:39.477Z,98755.69
2023-01-04T23:54:06.825Z,98742.97
2023-01-04T23:56:33.414Z,98751.22
2023-01-04T23:59:00.154Z,98752.41
